Main page
METAR-TAF:

METAR-TAF

Airports :

Schenck Field

Clarinda, Iowa, United States

latitude: 40-43N, longitude: 095-02W, elevation: 994 ft

Current weather observation

The report was made 31 minutes ago, at 02:35 UTC
Wind 6 mph from the South/Southwest
Temperature 81°F
Humidity 100%
Pressure 29.91 in. Hg
Visibility: 10 miles
Overcast at a height of 5000 ft

METAR: KICL 190235Z AUTO 21005KT 10SM OVC050 27/27 A2991 RMK AO2

Time: 22:06 (03:06 UTC)


TAF: missing

Weather observations and forecasts of more than 4000 airports (METAR and TAF reports).

The available stations are represented by yellow and red dots on the map.

Hover mouse over dot to see the name of the station.

Then click to see weather observations and forecasts.

To change the map : click on the green buttons with a black cross to zoom in, on the green button with a dash to zoom out, or on the green arrows for adjacent maps.


METAR-TAF: